Time;durP1;ratioP1;P1;durP2;ratioP2;P2;SDS_P1;SDS_P2;PMS_P1;PMS_P2;Temp;Humidity;BMP_temperature;BMP_pressure;BME280_temperature;BME280_humidity;BME280_pressure;Samples;Min_cycle;Max_cycle;Signal;HPM_P1;HPM_P2
2021/08/01 00:00:48;;;;;;;10.40;6.82;;;16.10;99.90;;;;;;5062511;28;20275;-64
2021/08/01 00:03:13;;;;;;;13.80;7.60;;;16.00;99.90;;;;;;5065219;28;20172;-64
2021/08/01 00:05:41;;;;;;;12.82;6.85;;;16.00;99.90;;;;;;5064866;28;20164;-64
2021/08/01 00:08:07;;;;;;;13.02;7.40;;;16.00;99.90;;;;;;5065218;28;20244;-63
2021/08/01 00:10:32;;;;;;;8.20;6.85;;;16.20;99.90;;;;;;5063221;28;20208;-63
2021/08/01 00:12:58;;;;;;;11.52;7.50;;;16.10;99.90;;;;;;5064439;28;20169;-64
2021/08/01 00:15:24;;;;;;;17.65;7.43;;;16.10;99.90;;;;;;5064862;28;20214;-63
2021/08/01 00:17:49;;;;;;;18.60;7.10;;;16.20;99.90;;;;;;5063694;28;20172;-64
2021/08/01 00:20:15;;;;;;;12.23;6.60;;;16.20;99.90;;;;;;5065335;28;20189;-64
2021/08/01 00:22:41;;;;;;;15.27;7.18;;;16.10;99.90;;;;;;5061213;28;20157;-64
2021/08/01 00:25:07;;;;;;;11.63;6.80;;;16.00;99.90;;;;;;5065018;28;20650;-64
2021/08/01 00:27:35;;;;;;;14.68;7.85;;;15.90;99.90;;;;;;5064925;28;20161;-64
2021/08/01 00:30:06;;;;;;;13.55;7.22;;;15.90;99.90;;;;;;5064869;28;20161;-64
2021/08/01 00:32:32;;;;;;;15.15;7.57;;;15.90;99.90;;;;;;5062363;28;20161;-64
2021/08/01 00:34:57;;;;;;;9.15;6.75;;;15.90;99.90;;;;;;5064889;28;20248;-64
2021/08/01 00:37:23;;;;;;;15.00;7.75;;;16.00;99.90;;;;;;5068003;28;20168;-64
2021/08/01 00:39:53;;;;;;;10.68;7.38;;;16.00;99.90;;;;;;5068497;28;20168;-64
2021/08/01 00:42:19;;;;;;;15.15;7.32;;;16.00;99.90;;;;;;5065643;28;20157;-64
2021/08/01 00:44:45;;;;;;;10.05;6.93;;;16.00;99.90;;;;;;5068231;28;20239;-64
2021/08/01 00:47:11;;;;;;;14.10;7.72;;;16.10;99.90;;;;;;5068321;28;20169;-64
2021/08/01 00:49:37;;;;;;;10.35;6.88;;;16.20;99.90;;;;;;5068129;28;20168;-64
2021/08/01 00:52:06;;;;;;;13.10;7.03;;;15.90;99.90;;;;;;5065879;28;20195;-64
2021/08/01 00:54:33;;;;;;;14.93;6.95;;;15.80;99.90;;;;;;5067847;28;20260;-64
2021/08/01 00:57:00;;;;;;;18.02;7.65;;;15.90;99.90;;;;;;5068093;28;20183;-64
2021/08/01 00:59:27;;;;;;;15.15;6.78;;;15.80;99.90;;;;;;5067659;28;20222;-64
2021/08/01 01:02:07;;;;;;;16.33;6.78;;;15.70;99.90;;;;;;5065324;28;20192;-64
2021/08/01 01:04:55;;;;;;;17.17;6.97;;;15.70;99.90;;;;;;5068118;28;20173;-64
2021/08/01 01:07:21;;;;;;;13.45;6.53;;;15.80;99.90;;;;;;5068042;28;20634;-64
2021/08/01 01:10:05;;;;;;;15.15;7.07;;;15.70;99.90;;;;;;5067734;28;20239;-64
2021/08/01 01:12:44;;;;;;;25.48;8.23;;;15.70;99.90;;;;;;5065255;28;20160;-64
2021/08/01 01:15:21;;;;;;;11.13;7.32;;;15.80;99.90;;;;;;5067674;28;20186;-64
2021/08/01 01:17:50;;;;;;;16.02;7.82;;;15.90;99.90;;;;;;5068023;28;20160;-63
2021/08/01 01:20:28;;;;;;;18.98;8.02;;;15.80;99.90;;;;;;5067614;28;20184;-64
2021/08/01 01:23:20;;;;;;;15.13;7.43;;;15.60;99.90;;;;;;5066508;28;20163;-64
2021/08/01 01:26:00;;;;;;;17.25;8.02;;;15.60;99.90;;;;;;5067844;28;20239;-64
2021/08/01 01:28:49;;;;;;;20.58;7.70;;;15.50;99.90;;;;;;5067572;28;20163;-65
2021/08/01 01:31:31;;;;;;;15.32;7.57;;;15.40;99.90;;;;;;5065125;28;20646;-64
2021/08/01 01:34:11;;;;;;;15.32;8.00;;;15.40;99.90;;;;;;5067522;28;20679;-64
2021/08/01 01:36:40;;;;;;;20.75;8.10;;;15.30;99.90;;;;;;5066247;28;20172;-63
2021/08/01 01:39:08;;;;;;;19.17;7.88;;;15.20;99.90;;;;;;5067423;28;20175;-64
2021/08/01 01:41:36;;;;;;;16.50;7.60;;;15.30;99.90;;;;;;5064554;28;20199;-64
2021/08/01 01:44:05;;;;;;;23.00;7.57;;;15.30;99.90;;;;;;5067133;28;20175;-64
2021/08/01 01:46:31;;;;;;;13.45;7.50;;;15.30;99.90;;;;;;5067323;28;20153;-64
2021/08/01 01:48:58;;;;;;;23.27;7.75;;;15.20;99.90;;;;;;5066807;28;20157;-64
2021/08/01 01:51:24;;;;;;;19.67;7.45;;;15.30;99.90;;;;;;5064591;28;20172;-63
2021/08/01 01:53:50;;;;;;;20.48;7.35;;;15.30;99.90;;;;;;5067241;28;20176;-64
2021/08/01 01:56:17;;;;;;;16.65;7.00;;;15.30;99.90;;;;;;5066976;28;20161;-63
2021/08/01 01:58:43;;;;;;;16.45;7.28;;;15.20;99.90;;;;;;5067342;28;20211;-64
2021/08/01 02:01:10;;;;;;;26.70;9.00;;;15.30;99.90;;;;;;5062846;28;20188;-63
2021/08/01 02:03:35;;;;;;;24.13;8.20;;;15.40;99.90;;;;;;5066948;28;20173;-64
2021/08/01 02:06:01;;;;;;;19.85;7.63;;;15.40;99.90;;;;;;5065869;28;20214;-64
2021/08/01 02:08:37;;;;;;;21.25;8.18;;;15.30;99.90;;;;;;5066614;28;20226;-63
2021/08/01 02:11:07;;;;;;;21.05;8.40;;;15.40;99.90;;;;;;5064056;28;20160;-64
2021/08/01 02:14:02;;;;;;;21.23;7.78;;;15.40;99.90;;;;;;5066679;28;20641;-64
2021/08/01 02:16:34;;;;;;;26.27;8.30;;;15.30;99.90;;;;;;5066708;28;20161;-64
2021/08/01 02:19:04;;;;;;;30.02;8.10;;;15.40;99.90;;;;;;5066796;28;20164;-64
2021/08/01 02:21:30;;;;;;;16.13;7.50;;;15.50;99.90;;;;;;5064084;28;20207;-64
2021/08/01 02:23:59;;;;;;;17.08;7.63;;;15.40;99.90;;;;;;5066622;28;20173;-64
2021/08/01 02:26:25;;;;;;;26.17;7.78;;;15.40;99.90;;;;;;5066418;28;20163;-64
2021/08/01 02:28:53;;;;;;;21.73;7.72;;;15.50;99.90;;;;;;5066371;28;20190;-64
2021/08/01 02:31:19;;;;;;;23.83;8.05;;;15.40;99.90;;;;;;5062353;28;20592;-64
2021/08/01 02:33:47;;;;;;;19.95;8.07;;;15.40;99.90;;;;;;5066493;28;20178;-64
2021/08/01 02:36:13;;;;;;;13.85;7.45;;;15.50;99.90;;;;;;5066362;28;20179;-65
2021/08/01 02:38:40;;;;;;;15.85;7.85;;;15.50;99.90;;;;;;5066175;28;20700;-64
2021/08/01 02:41:14;;;;;;;22.35;8.45;;;15.60;99.90;;;;;;5063543;28;20216;-64
2021/08/01 02:43:40;;;;;;;20.13;8.30;;;15.60;99.90;;;;;;5064817;28;20680;-64
2021/08/01 02:46:08;;;;;;;29.17;8.75;;;15.70;99.90;;;;;;5065929;28;20179;-64
2021/08/01 02:48:35;;;;;;;16.77;8.55;;;15.70;99.90;;;;;;5066027;28;20157;-64
2021/08/01 02:51:03;;;;;;;21.45;8.52;;;15.80;99.90;;;;;;5063298;28;20390;-65
2021/08/01 02:53:32;;;;;;;17.17;8.38;;;15.70;99.90;;;;;;5064612;28;20181;-64
2021/08/01 02:56:00;;;;;;;18.77;8.40;;;15.50;99.90;;;;;;5066059;28;20156;-64
2021/08/01 02:58:28;;;;;;;27.73;8.18;;;15.40;99.90;;;;;;5065795;28;20160;-64
2021/08/01 03:00:55;;;;;;;18.08;8.57;;;15.30;99.90;;;;;;5062317;28;20185;-64
2021/08/01 03:03:22;;;;;;;22.98;8.70;;;15.30;99.90;;;;;;5064413;28;20223;-64
2021/08/01 03:05:48;;;;;;;21.30;9.15;;;15.40;99.90;;;;;;5065977;28;20156;-64
2021/08/01 03:08:14;;;;;;;29.98;9.50;;;15.50;99.90;;;;;;5065997;28;20228;-64
2021/08/01 03:10:44;;;;;;;22.20;9.48;;;15.60;99.90;;;;;;5063400;28;20407;-65
2021/08/01 03:13:10;;;;;;;27.73;9.82;;;15.70;99.90;;;;;;5065608;28;20174;-64
2021/08/01 03:15:36;;;;;;;23.13;8.88;;;15.70;99.90;;;;;;5065364;28;20228;-65
2021/08/01 03:18:02;;;;;;;32.70;10.10;;;15.60;99.90;;;;;;5065837;28;20192;-65
2021/08/01 03:20:27;;;;;;;27.35;9.65;;;15.60;99.90;;;;;;5064474;28;20196;-65
2021/08/01 03:22:53;;;;;;;23.15;9.80;;;15.70;99.90;;;;;;5064140;28;20164;-64
2021/08/01 03:25:18;;;;;;;20.17;9.70;;;15.80;99.90;;;;;;5065416;28;20172;-64
2021/08/01 03:27:44;;;;;;;27.48;10.23;;;15.90;99.90;;;;;;5064490;28;20168;-65
2021/08/01 03:30:10;;;;;;;31.35;11.07;;;16.00;99.90;;;;;;5065298;28;20172;-64
2021/08/01 03:32:36;;;;;;;33.50;10.88;;;16.10;99.90;;;;;;5062990;28;20156;-64
2021/08/01 03:35:02;;;;;;;26.67;10.60;;;16.00;99.90;;;;;;5065385;28;20172;-65
2021/08/01 03:37:28;;;;;;;30.27;10.95;;;16.10;99.90;;;;;;5065347;28;20161;-64
2021/08/01 03:39:55;;;;;;;24.70;10.88;;;16.00;99.90;;;;;;5065461;28;20506;-64
2021/08/01 03:42:21;;;;;;;28.15;10.60;;;15.80;99.90;;;;;;5062891;28;20165;-64
2021/08/01 03:44:46;;;;;;;26.65;9.95;;;15.80;99.90;;;;;;5065388;28;20169;-64
2021/08/01 03:47:13;;;;;;;22.13;10.55;;;15.60;99.90;;;;;;5065518;28;20165;-64
2021/08/01 03:49:42;;;;;;;21.98;10.90;;;15.60;99.90;;;;;;5065246;28;20168;-65
2021/08/01 03:52:08;;;;;;;19.13;9.88;;;15.60;99.90;;;;;;5062962;28;20176;-64
2021/08/01 03:54:34;;;;;;;23.83;10.95;;;15.60;99.90;;;;;;5065115;28;20176;-65
2021/08/01 03:56:59;;;;;;;30.00;10.60;;;15.60;99.90;;;;;;5065395;28;20165;-64
2021/08/01 03:59:25;;;;;;;24.98;10.02;;;15.50;99.90;;;;;;5064789;28;20173;-64
2021/08/01 04:01:50;;;;;;;24.50;9.80;;;15.50;99.90;;;;;;5061189;28;20220;-64
2021/08/01 04:04:16;;;;;;;28.92;11.02;;;15.60;99.90;;;;;;5065006;28;20172;-64
2021/08/01 04:06:42;;;;;;;24.20;10.55;;;15.60;99.90;;;;;;5065108;28;20157;-64
2021/08/01 04:09:07;;;;;;;28.40;10.90;;;15.50;99.90;;;;;;5064956;28;20220;-64
2021/08/01 04:11:33;;;;;;;32.28;11.52;;;15.50;99.90;;;;;;5064636;28;20160;-64
2021/08/01 04:14:00;;;;;;;30.60;11.10;;;15.40;99.90;;;;;;5068935;28;20172;-64
2021/08/01 04:16:25;;;;;;;34.38;12.80;;;15.50;99.90;;;;;;5068861;28;20175;-65
2021/08/01 04:18:51;;;;;;;31.65;11.30;;;15.50;99.90;;;;;;5068780;28;20164;-65
2021/08/01 04:21:17;;;;;;;34.05;12.75;;;15.40;99.90;;;;;;5066377;28;20224;-64
2021/08/01 04:23:43;;;;;;;35.45;13.52;;;15.40;99.90;;;;;;5068998;28;20172;-64
2021/08/01 04:26:09;;;;;;;34.30;12.65;;;15.30;99.90;;;;;;5068886;28;20164;-64
2021/08/01 04:28:36;;;;;;;28.70;14.00;;;15.40;99.90;;;;;;5067680;28;20160;-64
2021/08/01 04:31:02;;;;;;;39.03;13.18;;;15.40;99.90;;;;;;5064782;28;20417;-64
2021/08/01 04:33:28;;;;;;;49.35;14.07;;;15.30;99.90;;;;;;5068406;28;20228;-65
2021/08/01 04:35:54;;;;;;;35.80;12.85;;;15.40;99.90;;;;;;5068743;28;20196;-64
2021/08/01 04:38:19;;;;;;;42.03;14.05;;;15.30;99.90;;;;;;5068506;28;20168;-66
2021/08/01 04:40:46;;;;;;;39.45;13.45;;;15.60;99.90;;;;;;5066181;28;20468;-64
2021/08/01 04:43:12;;;;;;;31.13;13.40;;;15.60;99.90;;;;;;5068600;28;20188;-64
2021/08/01 04:45:37;;;;;;;35.78;13.68;;;15.50;99.90;;;;;;5067866;28;20211;-64
2021/08/01 04:48:04;;;;;;;43.80;15.25;;;15.40;99.90;;;;;;5068481;28;20173;-65
2021/08/01 04:50:30;;;;;;;36.95;13.85;;;15.40;99.90;;;;;;5066981;28;20175;-64
2021/08/01 04:52:55;;;;;;;44.05;13.82;;;15.40;99.90;;;;;;5067351;28;20165;-64
2021/08/01 04:55:21;;;;;;;46.30;14.30;;;15.40;99.90;;;;;;5068048;28;20165;-65
2021/08/01 04:57:47;;;;;;;54.20;14.95;;;15.40;99.90;;;;;;5068325;28;20157;-65
2021/08/01 05:00:14;;;;;;;47.40;15.00;;;15.50;99.90;;;;;;5067797;28;20176;-65
2021/08/01 05:02:40;;;;;;;39.60;15.20;;;15.60;99.90;;;;;;5065579;28;20156;-65
2021/08/01 05:05:06;;;;;;;40.30;14.10;;;15.40;99.90;;;;;;5068175;28;20175;-64
2021/08/01 05:07:32;;;;;;;54.45;15.95;;;15.40;99.90;;;;;;5068054;28;20161;-64
2021/08/01 05:09:59;;;;;;;59.08;16.15;;;15.50;99.90;;;;;;5067683;28;20299;-64
2021/08/01 05:12:24;;;;;;;41.55;15.30;;;15.70;99.90;;;;;;5065298;28;20168;-64
2021/08/01 05:14:50;;;;;;;43.00;15.52;;;15.60;99.90;;;;;;5067639;28;20176;-65
2021/08/01 05:17:16;;;;;;;37.22;15.20;;;15.60;99.90;;;;;;5068199;28;20168;-64
2021/08/01 05:19:42;;;;;;;33.15;14.55;;;15.70;99.90;;;;;;5067734;28;20549;-65
2021/08/01 05:22:09;;;;;;;51.72;15.90;;;15.60;99.90;;;;;;5064324;28;20189;-65
2021/08/01 05:24:39;;;;;;;41.40;15.65;;;15.70;99.90;;;;;;5067578;28;20177;-64
2021/08/01 05:27:05;;;;;;;34.97;15.95;;;15.70;99.90;;;;;;5067901;28;20157;-65
2021/08/01 05:29:31;;;;;;;41.83;16.85;;;16.00;99.90;;;;;;5067169;28;20169;-64
2021/08/01 05:31:57;;;;;;;49.60;16.05;;;16.00;99.90;;;;;;5065005;28;20172;-64
2021/08/01 05:34:23;;;;;;;32.63;15.00;;;15.90;99.90;;;;;;5067217;28;20196;-64
2021/08/01 05:36:49;;;;;;;42.03;15.93;;;15.90;99.90;;;;;;5067676;28;20656;-65
2021/08/01 05:39:15;;;;;;;27.73;14.73;;;16.00;99.90;;;;;;5067560;28;20232;-64
2021/08/01 05:41:40;;;;;;;36.63;14.52;;;16.00;99.90;;;;;;5064708;28;20196;-64
2021/08/01 05:44:06;;;;;;;36.35;15.30;;;16.00;99.90;;;;;;5067033;28;20172;-65
2021/08/01 05:46:32;;;;;;;31.52;14.23;;;16.00;99.90;;;;;;5066839;28;20359;-65
2021/08/01 05:48:57;;;;;;;28.80;13.98;;;16.00;99.90;;;;;;5067256;28;20179;-64
2021/08/01 05:51:23;;;;;;;39.65;15.13;;;16.00;99.90;;;;;;5064516;28;20165;-64
2021/08/01 05:53:49;;;;;;;36.53;15.85;;;16.20;99.90;;;;;;5067334;28;20213;-65
2021/08/01 05:56:15;;;;;;;38.85;15.30;;;16.30;99.90;;;;;;5067131;28;20259;-64
2021/08/01 05:58:41;;;;;;;31.67;15.57;;;16.30;99.90;;;;;;5065857;28;20264;-64
2021/08/01 06:01:08;;;;;;;36.25;15.45;;;16.50;99.90;;;;;;5063941;28;20260;-65
2021/08/01 06:03:34;;;;;;;34.45;14.65;;;16.40;99.90;;;;;;5066562;28;20169;-65
2021/08/01 06:06:13;;;;;;;38.15;13.75;;;16.40;99.90;;;;;;5066940;28;20165;-64
2021/08/01 06:08:44;;;;;;;28.33;14.18;;;16.50;99.90;;;;;;5066453;28;20204;-64
2021/08/01 06:11:11;;;;;;;33.67;13.90;;;16.60;99.90;;;;;;5064049;28;20192;-64
2021/08/01 06:13:37;;;;;;;33.92;13.32;;;16.90;99.90;;;;;;5066560;28;20172;-64
2021/08/01 06:16:05;;;;;;;29.42;14.57;;;17.10;99.90;;;;;;5065066;28;20172;-64
2021/08/01 06:18:31;;;;;;;30.33;12.95;;;17.30;99.90;;;;;;5066547;28;20200;-65
2021/08/01 06:21:14;;;;;;;25.15;13.02;;;17.20;99.90;;;;;;5063821;28;20334;-65
2021/08/01 06:23:42;;;;;;;27.92;13.35;;;17.40;99.90;;;;;;5066297;28;20230;-65
2021/08/01 06:26:09;;;;;;;26.13;11.80;;;17.10;99.90;;;;;;5066343;28;20237;-65
2021/08/01 06:28:35;;;;;;;28.73;12.82;;;17.10;99.90;;;;;;5066452;28;20160;-65
2021/08/01 06:31:04;;;;;;;22.88;12.02;;;17.20;99.90;;;;;;5063403;28;20240;-64
2021/08/01 06:33:31;;;;;;;32.60;12.70;;;17.20;99.90;;;;;;5065973;28;20207;-65
2021/08/01 06:35:57;;;;;;;24.40;11.32;;;17.10;99.90;;;;;;5066249;28;20172;-65
2021/08/01 06:38:24;;;;;;;25.42;12.02;;;17.20;99.90;;;;;;5066300;28;20168;-65
2021/08/01 06:40:49;;;;;;;30.48;12.07;;;17.20;99.90;;;;;;5063474;28;20295;-65
2021/08/01 06:43:15;;;;;;;25.38;11.70;;;17.20;99.90;;;;;;5066162;28;20163;-64
2021/08/01 06:45:41;;;;;;;25.15;11.60;;;17.40;99.90;;;;;;5065688;28;20173;-65
2021/08/01 06:48:07;;;;;;;33.72;12.27;;;17.40;99.90;;;;;;5064718;28;20196;-64
2021/08/01 06:50:37;;;;;;;26.17;11.90;;;17.60;99.90;;;;;;5064249;28;20589;-66
2021/08/01 06:53:03;;;;;;;27.15;12.40;;;17.60;99.90;;;;;;5064609;28;20623;-65
2021/08/01 06:55:30;;;;;;;29.13;11.57;;;17.60;99.90;;;;;;5064896;28;20200;-64
2021/08/01 06:57:55;;;;;;;23.17;11.60;;;17.50;99.90;;;;;;5065696;28;20573;-64
2021/08/01 07:00:21;;;;;;;33.70;11.88;;;17.40;99.90;;;;;;5064841;28;20723;-64
2021/08/01 07:02:57;;;;;;;29.92;11.82;;;17.60;99.90;;;;;;5063904;28;20167;-64
2021/08/01 07:05:24;;;;;;;26.33;11.32;;;17.50;99.90;;;;;;5065359;28;20172;-64
2021/08/01 07:07:50;;;;;;;28.30;11.25;;;17.50;99.90;;;;;;5065727;28;20168;-65
2021/08/01 07:10:17;;;;;;;21.75;11.50;;;17.40;99.90;;;;;;5065186;28;20217;-65
2021/08/01 07:12:43;;;;;;;30.00;12.63;;;17.50;99.90;;;;;;5062415;28;20402;-64
2021/08/01 07:15:09;;;;;;;27.25;11.68;;;17.80;99.90;;;;;;5065300;28;20230;-64
2021/08/01 07:17:34;;;;;;;25.85;11.13;;;17.70;99.90;;;;;;5065591;28;20196;-65
2021/08/01 07:20:00;;;;;;;30.10;11.45;;;17.70;99.90;;;;;;5065467;28;20156;-64
2021/08/01 07:22:26;;;;;;;26.85;10.95;;;17.90;99.90;;;;;;5062556;28;20199;-64
2021/08/01 07:24:52;;;;;;;19.98;11.27;;;17.90;99.90;;;;;;5064969;28;20230;-64
2021/08/01 07:27:17;;;;;;;25.17;9.88;;;17.70;99.90;;;;;;5065204;28;20165;-64
2021/08/01 07:29:43;;;;;;;30.38;11.05;;;17.80;99.90;;;;;;5063782;28;20161;-64
2021/08/01 07:32:09;;;;;;;23.77;11.32;;;17.90;99.90;;;;;;5062530;28;20185;-65
2021/08/01 07:34:34;;;;;;;31.67;10.88;;;18.10;99.90;;;;;;5063625;28;20228;-65
2021/08/01 07:37:00;;;;;;;32.38;10.93;;;18.00;99.90;;;;;;5065368;28;20172;-64
2021/08/01 07:39:26;;;;;;;28.85;11.18;;;18.00;99.90;;;;;;5065301;28;20175;-65
2021/08/01 07:41:51;;;;;;;25.58;11.30;;;18.00;99.90;;;;;;5062647;28;20283;-64
2021/08/01 07:44:17;;;;;;;23.10;10.10;;;18.00;99.90;;;;;;5065193;28;20248;-65
2021/08/01 07:46:42;;;;;;;23.98;10.10;;;17.90;99.90;;;;;;5067326;28;20169;-64
2021/08/01 07:49:08;;;;;;;16.38;9.88;;;17.90;99.90;;;;;;5069262;28;20149;-64
2021/08/01 07:51:34;;;;;;;20.88;10.50;;;17.70;99.90;;;;;;5066459;28;20641;-64
2021/08/01 07:53:59;;;;;;;18.90;11.45;;;17.70;99.90;;;;;;5069271;28;20177;-65
2021/08/01 07:56:25;;;;;;;21.25;10.48;;;18.00;99.90;;;;;;5069051;28;20165;-64
2021/08/01 07:58:50;;;;;;;26.50;11.23;;;18.40;99.90;;;;;;5069322;28;20543;-65
2021/08/01 08:01:16;;;;;;;21.85;10.77;;;18.40;99.90;;;;;;5066374;28;20196;-64
2021/08/01 08:03:42;;;;;;;30.15;11.63;;;18.50;99.90;;;;;;5068974;28;20169;-64
2021/08/01 08:06:09;;;;;;;24.80;12.32;;;18.70;99.90;;;;;;5069321;28;20228;-64
2021/08/01 08:08:34;;;;;;;24.38;10.93;;;18.70;99.90;;;;;;5068808;28;20172;-65
2021/08/01 08:11:00;;;;;;;23.02;11.57;;;18.60;99.90;;;;;;5066325;28;20171;-66
2021/08/01 08:13:26;;;;;;;21.77;11.23;;;18.60;99.90;;;;;;5068675;28;20183;-65
2021/08/01 08:15:51;;;;;;;18.58;10.85;;;18.80;99.90;;;;;;5068379;28;20706;-63
2021/08/01 08:18:17;;;;;;;27.85;11.10;;;19.20;99.90;;;;;;5068576;28;20574;-64
2021/08/01 08:20:43;;;;;;;22.92;12.32;;;19.10;99.90;;;;;;5066211;28;20238;-64
2021/08/01 08:23:09;;;;;;;16.30;11.50;;;19.50;99.90;;;;;;5068884;28;20639;-65
2021/08/01 08:25:35;;;;;;;18.63;11.18;;;19.80;99.90;;;;;;5068652;28;20165;-65
2021/08/01 08:28:02;;;;;;;23.10;10.98;;;20.00;99.90;;;;;;5068919;28;20623;-65
2021/08/01 08:30:28;;;;;;;19.00;9.63;;;19.90;99.90;;;;;;5067105;28;20191;-65
2021/08/01 08:32:53;;;;;;;21.05;10.90;;;19.70;99.90;;;;;;5066951;28;20168;-64
2021/08/01 08:35:19;;;;;;;17.83;10.10;;;19.60;99.90;;;;;;5068281;28;20176;-65
2021/08/01 08:37:49;;;;;;;17.10;10.90;;;19.30;99.90;;;;;;5068766;28;20525;-65
2021/08/01 08:40:15;;;;;;;25.48;11.77;;;19.20;99.90;;;;;;5068420;28;20161;-65
2021/08/01 08:42:45;;;;;;;18.58;11.98;;;19.20;99.90;;;;;;5065837;28;20160;-65
2021/08/01 08:45:15;;;;;;;23.73;11.57;;;19.30;99.90;;;;;;5068125;28;20171;-63
2021/08/01 08:47:47;;;;;;;20.40;12.15;;;19.40;99.90;;;;;;5067105;28;20190;-65
2021/08/01 08:50:21;;;;;;;19.23;12.07;;;19.60;99.90;;;;;;5068543;28;20299;-65
2021/08/01 08:52:48;;;;;;;19.95;13.07;;;19.50;99.90;;;;;;5066239;28;20160;-65
2021/08/01 08:55:15;;;;;;;16.25;12.77;;;19.40;99.90;;;;;;5066656;28;20180;-65
2021/08/01 08:57:53;;;;;;;26.13;13.05;;;19.30;99.90;;;;;;5066232;28;20168;-65
2021/08/01 09:00:21;;;;;;;23.92;12.63;;;19.20;99.90;;;;;;5065870;28;20176;-65
2021/08/01 09:02:48;;;;;;;18.73;12.43;;;19.10;99.90;;;;;;5065810;28;20164;-65
2021/08/01 09:05:14;;;;;;;20.08;12.57;;;19.00;99.90;;;;;;5067137;28;20179;-65
2021/08/01 09:07:40;;;;;;;24.13;12.25;;;19.00;99.90;;;;;;5067833;28;20161;-64
2021/08/01 09:10:07;;;;;;;22.98;13.80;;;19.10;99.90;;;;;;5067899;28;20212;-65
2021/08/01 09:12:44;;;;;;;22.58;14.52;;;19.30;99.90;;;;;;5065379;28;20160;-65
2021/08/01 09:15:15;;;;;;;23.45;14.43;;;19.30;99.90;;;;;;5066023;28;20172;-65
2021/08/01 09:17:41;;;;;;;20.38;13.23;;;19.40;99.90;;;;;;5067705;28;20161;-65
2021/08/01 09:20:14;;;;;;;18.33;13.30;;;19.50;99.90;;;;;;5067592;28;20240;-65
2021/08/01 09:22:40;;;;;;;20.88;15.07;;;19.50;99.90;;;;;;5065035;28;20169;-65
2021/08/01 09:25:17;;;;;;;25.17;15.00;;;19.40;99.90;;;;;;5067577;28;20613;-65
2021/08/01 09:27:43;;;;;;;18.13;14.10;;;19.70;99.90;;;;;;5066466;28;20191;-65
2021/08/01 09:30:10;;;;;;;29.25;13.85;;;19.80;99.90;;;;;;5066916;28;20169;-65
2021/08/01 09:32:49;;;;;;;23.77;15.25;;;20.00;99.90;;;;;;5064496;28;20188;-65
2021/08/01 09:35:21;;;;;;;19.48;14.38;;;20.20;99.90;;;;;;5067025;28;20186;-65
2021/08/01 09:37:58;;;;;;;18.02;13.57;;;20.60;99.90;;;;;;5067596;28;20175;-65
2021/08/01 09:40:33;;;;;;;18.40;13.63;;;21.00;99.90;;;;;;5066351;28;20161;-66
2021/08/01 09:43:10;;;;;;;19.35;13.15;;;20.90;99.90;;;;;;5066045;28;20163;-65
2021/08/01 09:45:37;;;;;;;15.57;12.63;;;20.90;99.90;;;;;;5066308;28;20188;-65
2021/08/01 09:48:23;;;;;;;18.08;13.30;;;21.10;99.90;;;;;;5065556;28;20195;-65
2021/08/01 09:51:11;;;;;;;16.40;11.60;;;21.10;99.90;;;;;;5064105;28;20223;-65
2021/08/01 09:53:39;;;;;;;15.55;10.55;;;20.80;99.90;;;;;;5066443;28;20168;-65
2021/08/01 09:56:11;;;;;;;13.23;10.00;;;20.80;99.90;;;;;;5066415;28;20226;-65
2021/08/01 09:58:38;;;;;;;14.75;10.98;;;20.70;99.90;;;;;;5066669;28;20173;-65
2021/08/01 10:01:04;;;;;;;18.02;10.82;;;20.80;99.90;;;;;;5063979;28;20188;-63
2021/08/01 10:03:40;;;;;;;14.07;11.20;;;20.90;99.90;;;;;;5065147;28;20175;-63
2021/08/01 10:06:12;;;;;;;15.25;11.65;;;21.10;99.90;;;;;;5065320;28;20185;-65
2021/08/01 10:08:39;;;;;;;17.65;10.00;;;21.00;99.90;;;;;;5065681;28;20164;-63
2021/08/01 10:11:13;;;;;;;12.05;10.25;;;20.90;99.90;;;;;;5064024;28;20635;-65
2021/08/01 10:13:39;;;;;;;13.65;10.23;;;20.70;99.90;;;;;;5066310;28;20156;-65
2021/08/01 10:16:08;;;;;;;15.07;12.25;;;20.50;99.90;;;;;;5066370;28;20165;-65
2021/08/01 10:18:33;;;;;;;17.83;13.82;;;19.90;99.90;;;;;;5066357;28;20173;-63
2021/08/01 10:21:00;;;;;;;22.17;15.43;;;19.40;99.90;;;;;;5063588;28;20229;-63
2021/08/01 10:23:28;;;;;;;16.15;14.48;;;19.10;99.90;;;;;;5066095;28;20161;-62
2021/08/01 10:25:54;;;;;;;17.23;14.77;;;19.00;99.90;;;;;;5066372;28;20163;-62
2021/08/01 10:28:23;;;;;;;17.23;15.25;;;19.30;99.90;;;;;;5065910;28;20210;-63
2021/08/01 10:30:54;;;;;;;17.20;15.43;;;19.60;99.90;;;;;;5063955;28;20199;-63
2021/08/01 10:33:23;;;;;;;16.33;14.25;;;19.70;99.90;;;;;;5066249;28;20176;-62
2021/08/01 10:35:59;;;;;;;15.98;14.38;;;19.90;99.90;;;;;;5066162;28;20176;-62
2021/08/01 10:38:25;;;;;;;16.58;14.95;;;20.10;99.90;;;;;;5064783;28;20168;-63
2021/08/01 10:40:58;;;;;;;13.02;10.60;;;20.40;99.90;;;;;;5063977;28;20196;-62
2021/08/01 10:43:29;;;;;;;9.50;7.93;;;20.60;99.90;;;;;;5064806;28;20167;-63
2021/08/01 10:45:55;;;;;;;11.50;8.15;;;20.50;99.90;;;;;;5065866;28;20614;-64
2021/08/01 10:48:26;;;;;;;15.57;8.23;;;19.90;99.90;;;;;;5065503;28;20163;-64
2021/08/01 10:50:53;;;;;;;9.50;8.70;;;19.30;99.90;;;;;;5063471;28;20157;-64
2021/08/01 10:53:19;;;;;;;10.25;8.93;;;18.50;99.90;;;;;;5065697;28;20528;-66
2021/08/01 10:55:49;;;;;;;12.05;9.65;;;18.10;99.90;;;;;;5065707;28;20179;-65
2021/08/01 10:58:18;;;;;;;13.60;11.27;;;17.90;99.90;;;;;;5065752;28;20168;-65
2021/08/01 11:00:56;;;;;;;12.55;11.35;;;17.80;99.90;;;;;;5062661;28;20196;-65
2021/08/01 11:03:23;;;;;;;13.43;12.23;;;17.50;99.90;;;;;;5065352;28;20161;-65
2021/08/01 11:05:49;;;;;;;11.98;10.88;;;17.50;99.90;;;;;;5065505;28;20169;-65
2021/08/01 11:08:15;;;;;;;11.15;10.15;;;17.50;99.90;;;;;;5065651;28;20521;-65
2021/08/01 11:10:43;;;;;;;8.32;7.63;;;17.70;99.90;;;;;;5062857;28;20222;-66
2021/08/01 11:13:42;;;;;;;6.93;6.43;;;17.90;99.90;;;;;;5065571;28;20243;-65
2021/08/01 11:16:09;;;;;;;6.10;5.60;;;17.90;99.90;;;;;;5060907;28;20262;-65
2021/08/01 11:18:38;;;;;;;5.78;5.38;;;18.00;99.90;;;;;;5065387;28;20195;-65
2021/08/01 11:21:04;;;;;;;5.93;5.40;;;18.20;99.90;;;;;;5061998;28;20552;-65
2021/08/01 11:23:45;;;;;;;5.45;5.05;;;18.30;99.90;;;;;;5065084;28;20693;-65
2021/08/01 11:26:16;;;;;;;5.85;5.20;;;18.50;99.90;;;;;;5065255;28;20625;-65
2021/08/01 11:28:43;;;;;;;5.30;4.85;;;18.60;99.90;;;;;;5065094;28;20179;-64
2021/08/01 11:31:23;;;;;;;4.05;3.75;;;18.60;99.90;;;;;;5062761;28;20753;-65
2021/08/01 11:33:53;;;;;;;3.80;3.60;;;18.70;99.90;;;;;;5065124;28;20173;-65
2021/08/01 11:36:21;;;;;;;4.50;4.20;;;18.80;99.90;;;;;;5065076;28;20175;-65
2021/08/01 11:38:53;;;;;;;4.43;4.03;;;18.90;99.90;;;;;;5065385;28;20165;-64
2021/08/01 11:41:40;;;;;;;4.20;3.80;;;18.90;99.90;;;;;;5062557;28;20196;-64
2021/08/01 11:44:16;;;;;;;3.80;3.60;;;19.00;99.90;;;;;;5065091;28;20168;-65
2021/08/01 11:47:03;;;;;;;5.13;4.65;;;18.80;99.90;;;;;;5064778;28;20168;-64
2021/08/01 11:49:49;;;;;;;5.38;4.97;;;19.00;99.90;;;;;;5065093;28;20164;-64
2021/08/01 11:52:33;;;;;;;6.32;5.15;;;18.90;99.90;;;;;;5062350;28;20177;-64
2021/08/01 11:55:00;;;;;;;5.40;5.03;;;18.90;99.90;;;;;;5063580;28;20173;-64
2021/08/01 11:57:29;;;;;;;6.07;4.82;;;18.90;99.90;;;;;;5064973;28;20180;-64
2021/08/01 11:59:56;;;;;;;5.45;4.78;;;18.90;99.90;;;;;;5064872;28;20176;-64
2021/08/01 12:02:22;;;;;;;7.00;5.45;;;18.80;99.90;;;;;;5062215;28;20219;-64
2021/08/01 12:04:59;;;;;;;5.70;5.22;;;18.80;99.90;;;;;;5065091;28;20596;-64
2021/08/01 12:07:48;;;;;;;5.90;5.38;;;18.60;99.90;;;;;;5065033;28;20169;-64
2021/08/01 12:10:18;;;;;;;6.00;5.50;;;18.50;99.90;;;;;;5064566;28;20208;-64
2021/08/01 12:12:44;;;;;;;6.70;6.25;;;18.70;99.90;;;;;;5061967;28;20205;-64
2021/08/01 12:15:10;;;;;;;6.47;5.97;;;18.80;99.90;;;;;;5064583;28;20165;-64
2021/08/01 12:17:37;;;;;;;7.85;7.25;;;19.00;99.90;;;;;;5064543;28;20197;-65
2021/08/01 12:20:04;;;;;;;7.40;6.80;;;19.10;99.90;;;;;;5064616;28;20161;-64
2021/08/01 12:22:30;;;;;;;9.68;7.70;;;19.40;99.90;;;;;;5061473;28;20199;-65
2021/08/01 12:24:59;;;;;;;9.32;7.70;;;19.70;99.90;;;;;;5064247;28;20176;-65
2021/08/01 12:27:27;;;;;;;7.80;7.18;;;19.60;99.90;;;;;;5064558;28;20169;-65
2021/08/01 12:29:55;;;;;;;11.45;7.53;;;19.70;99.90;;;;;;5064249;28;20173;-65
2021/08/01 12:32:20;;;;;;;8.02;7.13;;;19.90;99.90;;;;;;5063727;28;20183;-64
2021/08/01 12:34:47;;;;;;;7.45;6.85;;;19.90;99.90;;;;;;5068149;28;20645;-64
2021/08/01 12:37:13;;;;;;;7.25;6.65;;;20.20;99.90;;;;;;5068165;28;20196;-64
2021/08/01 12:39:47;;;;;;;7.57;6.90;;;20.60;99.90;;;;;;5068124;28;20177;-65